createdAt,value
2023-01-21T00:01:03.320Z,93504.41
2023-01-21T00:03:33.023Z,93494.50
2023-01-21T00:05:59.770Z,93505.84
2023-01-21T00:08:27.269Z,93505.75
2023-01-21T00:10:54.287Z,93503.25
2023-01-21T00:13:21.005Z,93511.06
2023-01-21T00:15:47.753Z,93509.38
2023-01-21T00:18:14.519Z,93521.41
2023-01-21T00:20:41.172Z,93511.19
2023-01-21T00:23:07.853Z,93503.19
2023-01-21T00:25:34.474Z,93508.16
2023-01-21T00:28:01.175Z,93511.91
2023-01-21T00:30:27.801Z,93515.00
2023-01-21T00:32:54.447Z,93511.69
2023-01-21T00:35:21.046Z,93514.28
2023-01-21T00:37:47.698Z,93501.81
2023-01-21T00:40:14.802Z,93502.78
2023-01-21T00:42:41.549Z,93500.84
2023-01-21T00:45:09.021Z,93498.88
2023-01-21T00:47:35.674Z,93506.34
2023-01-21T00:50:02.970Z,93498.13
2023-01-21T00:52:29.588Z,93500.69
2023-01-21T00:54:56.220Z,93497.25
2023-01-21T00:57:22.849Z,93496.78
2023-01-21T00:59:49.631Z,93505.22
2023-01-21T01:02:16.259Z,93511.31
2023-01-21T01:04:43.000Z,93509.75
2023-01-21T01:07:11.086Z,93507.88
2023-01-21T01:09:37.716Z,93513.25
2023-01-21T01:12:04.688Z,93502.44
2023-01-21T01:14:31.289Z,93500.53
2023-01-21T01:16:57.907Z,93515.28
2023-01-21T01:19:25.384Z,93513.34
2023-01-21T01:21:52.056Z,93519.44
2023-01-21T01:24:18.722Z,93508.84
2023-01-21T01:26:45.343Z,93498.94
2023-01-21T01:29:13.597Z,93486.31
2023-01-21T01:31:40.379Z,93504.47
2023-01-21T01:34:07.297Z,93497.25
2023-01-21T01:36:33.971Z,93492.59
2023-01-21T01:39:00.585Z,93489.34
2023-01-21T01:41:30.164Z,93481.38
2023-01-21T01:44:02.241Z,93480.63
2023-01-21T01:46:34.223Z,93471.81
2023-01-21T01:49:15.177Z,93464.19
2023-01-21T01:51:53.145Z,93462.66
2023-01-21T01:54:42.300Z,93461.22
2023-01-21T01:57:11.199Z,93448.47
2023-01-21T01:59:38.554Z,93447.34
2023-01-21T02:02:08.891Z,93441.72
2023-01-21T02:04:42.633Z,93444.50
2023-01-21T02:07:09.379Z,93449.28
2023-01-21T02:09:36.076Z,93431.56
2023-01-21T02:12:04.905Z,93445.34
2023-01-21T02:14:32.936Z,93436.53
2023-01-21T02:16:59.523Z,93426.00
2023-01-21T02:19:32.667Z,93432.78
2023-01-21T02:22:18.016Z,93425.34
2023-01-21T02:25:16.058Z,93422.06
2023-01-21T02:27:57.321Z,93409.38
2023-01-21T02:30:23.970Z,93409.06
2023-01-21T02:32:53.327Z,93400.16
2023-01-21T02:35:43.378Z,93409.31
2023-01-21T02:38:40.039Z,93403.06
2023-01-21T02:41:23.817Z,93400.03
2023-01-21T02:43:56.016Z,93403.91
2023-01-21T02:46:31.731Z,93410.59
2023-01-21T02:49:04.491Z,93404.31
2023-01-21T02:51:31.067Z,93395.78
2023-01-21T02:53:57.700Z,93398.53
2023-01-21T02:56:27.864Z,93399.78
2023-01-21T02:59:02.716Z,93402.38
2023-01-21T03:01:48.322Z,93382.22
2023-01-21T03:04:36.654Z,93384.50
2023-01-21T03:07:18.033Z,93378.94
2023-01-21T03:09:44.677Z,93382.91
2023-01-21T03:12:26.903Z,93372.97
2023-01-21T03:15:40.024Z,93380.22
2023-01-21T03:18:16.501Z,93371.84
2023-01-21T03:20:47.817Z,93357.72
2023-01-21T03:23:27.052Z,93365.88
2023-01-21T03:25:55.624Z,93349.34
2023-01-21T03:28:26.233Z,93353.88
2023-01-21T03:31:02.257Z,93354.94
2023-01-21T03:33:33.000Z,93347.91
2023-01-21T03:36:02.417Z,93336.50
2023-01-21T03:38:35.914Z,93347.03
2023-01-21T03:41:12.696Z,93333.13
2023-01-21T03:43:39.832Z,93328.72
2023-01-21T03:46:18.157Z,93343.03
2023-01-21T03:48:53.436Z,93326.91
2023-01-21T03:51:27.501Z,93334.50
2023-01-21T03:53:58.798Z,93328.06
2023-01-21T03:56:26.275Z,93336.16
2023-01-21T03:58:53.320Z,93330.28
2023-01-21T04:01:20.087Z,93338.44
2023-01-21T04:03:46.728Z,93332.56
2023-01-21T04:06:18.954Z,93345.13
2023-01-21T04:08:45.621Z,93333.56
2023-01-21T04:11:12.468Z,93336.75
2023-01-21T04:13:39.209Z,93332.13
2023-01-21T04:16:06.263Z,93328.06
2023-01-21T04:18:32.997Z,93312.59
2023-01-21T04:20:59.799Z,93301.88
2023-01-21T04:23:26.451Z,93306.09
2023-01-21T04:25:53.598Z,93319.09
2023-01-21T04:28:20.708Z,93315.81
2023-01-21T04:30:47.919Z,93324.31
2023-01-21T04:33:14.848Z,93325.63
2023-01-21T04:35:41.552Z,93324.44
2023-01-21T04:38:08.201Z,93337.81
2023-01-21T04:40:34.828Z,93347.22
2023-01-21T04:43:02.288Z,93358.50
2023-01-21T04:45:28.896Z,93376.06
2023-01-21T04:47:55.489Z,93372.00
2023-01-21T04:50:22.125Z,93362.38
2023-01-21T04:52:48.764Z,93365.03
2023-01-21T04:55:15.410Z,93356.41
2023-01-21T04:57:41.989Z,93352.09
2023-01-21T05:00:09.524Z,93357.44
2023-01-21T05:02:36.299Z,93370.78
2023-01-21T05:05:03.038Z,93372.09
2023-01-21T05:07:29.642Z,93372.75
2023-01-21T05:09:56.316Z,93381.59
2023-01-21T05:12:22.928Z,93399.66
2023-01-21T05:14:53.889Z,93396.63
2023-01-21T05:17:21.140Z,93392.09
2023-01-21T05:19:47.792Z,93392.38
2023-01-21T05:22:14.395Z,93387.63
2023-01-21T05:24:41.069Z,93388.88
2023-01-21T05:27:08.362Z,93383.47
2023-01-21T05:29:34.982Z,93399.84
2023-01-21T05:32:02.252Z,93406.84
2023-01-21T05:34:28.970Z,93405.63
2023-01-21T05:36:55.646Z,93399.38
2023-01-21T05:39:22.262Z,93402.41
2023-01-21T05:41:48.844Z,93409.97
2023-01-21T05:44:17.566Z,93407.97
2023-01-21T05:46:44.386Z,93415.13
2023-01-21T05:49:11.032Z,93421.06
2023-01-21T05:51:37.682Z,93421.22
2023-01-21T05:54:04.464Z,93412.72
2023-01-21T05:56:31.068Z,93414.22
2023-01-21T05:58:57.687Z,93409.06
2023-01-21T06:01:24.945Z,93402.53
2023-01-21T06:03:51.710Z,93408.22
2023-01-21T06:06:18.507Z,93405.53
2023-01-21T06:08:45.134Z,93395.75
2023-01-21T06:11:11.797Z,93393.34
2023-01-21T06:13:38.440Z,93398.34
2023-01-21T06:16:05.365Z,93391.19
2023-01-21T06:18:32.021Z,93403.09
2023-01-21T06:21:01.734Z,93411.84
2023-01-21T06:23:28.399Z,93411.84
2023-01-21T06:26:02.027Z,93402.78
2023-01-21T06:28:30.088Z,93404.00
2023-01-21T06:30:56.797Z,93412.06
2023-01-21T06:33:23.587Z,93419.69
2023-01-21T06:35:50.231Z,93430.44
2023-01-21T06:38:16.850Z,93442.63
2023-01-21T06:40:43.941Z,93434.88
2023-01-21T06:43:10.561Z,93437.44
2023-01-21T06:45:37.247Z,93437.19
2023-01-21T06:48:04.071Z,93448.59
2023-01-21T06:50:30.715Z,93447.41
2023-01-21T06:52:57.330Z,93445.69
2023-01-21T06:55:23.961Z,93441.66
2023-01-21T06:57:50.597Z,93449.88
2023-01-21T07:00:18.860Z,93465.97
2023-01-21T07:02:45.624Z,93455.78
2023-01-21T07:05:12.277Z,93448.97
2023-01-21T07:07:38.981Z,93443.66
2023-01-21T07:10:06.195Z,93441.91
2023-01-21T07:12:32.787Z,93443.91
2023-01-21T07:14:59.474Z,93447.97
2023-01-21T07:17:26.135Z,93445.22
2023-01-21T07:19:52.721Z,93457.47
2023-01-21T07:22:19.382Z,93457.81
2023-01-21T07:24:46.147Z,93461.00
2023-01-21T07:27:12.728Z,93450.03
2023-01-21T07:29:39.359Z,93453.75
2023-01-21T07:32:06.121Z,93446.19
2023-01-21T07:34:32.837Z,93433.25
2023-01-21T07:36:59.469Z,93432.47
2023-01-21T07:39:26.040Z,93443.13
2023-01-21T07:41:53.478Z,93439.47
2023-01-21T07:44:20.060Z,93442.78
2023-01-21T07:46:46.777Z,93449.75
2023-01-21T07:49:17.340Z,93445.88
2023-01-21T07:51:47.960Z,93451.59
2023-01-21T07:54:15.079Z,93438.91
2023-01-21T07:56:42.120Z,93439.59
2023-01-21T07:59:10.467Z,93432.06
2023-01-21T08:01:37.101Z,93429.00
2023-01-21T08:04:03.834Z,93421.72
2023-01-21T08:06:30.485Z,93420.84
2023-01-21T08:08:57.077Z,93441.72
2023-01-21T08:11:23.761Z,93439.22
2023-01-21T08:13:50.917Z,93458.28
2023-01-21T08:16:17.602Z,93447.19
2023-01-21T08:18:44.283Z,93445.63
2023-01-21T08:21:10.891Z,93458.28
2023-01-21T08:23:37.662Z,93461.34
2023-01-21T08:26:05.939Z,93459.16
2023-01-21T08:28:33.346Z,93454.69
2023-01-21T08:31:05.083Z,93462.59
2023-01-21T08:33:31.806Z,93456.09
2023-01-21T08:36:07.184Z,93462.72
2023-01-21T08:38:34.568Z,93465.19
2023-01-21T08:41:02.276Z,93463.03
2023-01-21T08:43:28.958Z,93461.06
2023-01-21T08:45:57.220Z,93471.00
2023-01-21T08:48:24.061Z,93481.84
2023-01-21T08:50:50.963Z,93474.47
2023-01-21T08:53:17.636Z,93473.50
2023-01-21T08:55:44.436Z,93468.69
2023-01-21T08:58:11.113Z,93472.44
2023-01-21T09:00:37.786Z,93473.56
2023-01-21T09:03:04.521Z,93473.94
2023-01-21T09:05:31.124Z,93462.94
2023-01-21T09:07:58.344Z,93468.88
2023-01-21T09:10:43.880Z,93470.59
2023-01-21T09:13:11.208Z,93452.41
2023-01-21T09:15:42.660Z,93448.13
2023-01-21T09:18:09.725Z,93440.81
2023-01-21T09:20:36.997Z,93453.16
2023-01-21T09:23:24.283Z,93456.94
2023-01-21T09:25:56.126Z,93450.25
2023-01-21T09:28:23.651Z,93446.22
2023-01-21T09:30:55.535Z,93443.31
2023-01-21T09:33:22.213Z,93433.19
2023-01-21T09:36:00.445Z,93426.50
2023-01-21T09:38:28.886Z,93411.06
2023-01-21T09:41:00.050Z,93428.06
2023-01-21T09:43:33.670Z,93421.00
2023-01-21T09:46:04.119Z,93429.25
2023-01-21T09:48:39.918Z,93415.47
2023-01-21T09:51:17.243Z,93430.75
2023-01-21T09:53:56.139Z,93417.66
2023-01-21T09:56:35.782Z,93416.63
2023-01-21T09:59:37.465Z,93408.41
2023-01-21T10:02:18.022Z,93409.84
2023-01-21T10:05:07.035Z,93396.44
2023-01-21T10:07:39.076Z,93406.94
2023-01-21T10:10:18.281Z,93399.09
2023-01-21T10:13:00.287Z,93403.69
2023-01-21T10:15:46.490Z,93404.50
2023-01-21T10:18:18.648Z,93408.75
2023-01-21T10:20:53.508Z,93404.09
2023-01-21T10:23:30.881Z,93415.16
2023-01-21T10:26:02.174Z,93414.22
2023-01-21T10:28:33.298Z,93405.31
2023-01-21T10:31:08.741Z,93403.84
2023-01-21T10:33:35.455Z,93406.34
2023-01-21T10:36:26.948Z,93392.72
2023-01-21T10:39:20.071Z,93385.81
2023-01-21T10:42:16.724Z,93376.84
2023-01-21T10:45:02.747Z,93379.06
2023-01-21T10:47:56.220Z,93375.03
2023-01-21T10:50:45.063Z,93370.63
2023-01-21T10:53:41.685Z,93378.06
2023-01-21T10:56:14.507Z,93369.03
2023-01-21T10:58:52.736Z,93365.09
2023-01-21T11:01:29.930Z,93357.75
2023-01-21T11:04:19.191Z,93345.75
2023-01-21T11:06:49.672Z,93347.94
2023-01-21T11:09:16.383Z,93333.63
2023-01-21T11:11:43.131Z,93336.66
2023-01-21T11:14:10.499Z,93345.03
2023-01-21T11:16:47.775Z,93350.25
2023-01-21T11:19:17.858Z,93363.06
2023-01-21T11:22:05.540Z,93364.41
2023-01-21T11:24:43.612Z,93364.50
2023-01-21T11:27:40.976Z,93355.06
2023-01-21T11:30:44.493Z,93358.66
2023-01-21T11:33:24.128Z,93363.94
2023-01-21T11:35:53.172Z,93363.75
2023-01-21T11:38:23.892Z,93357.59
2023-01-21T11:41:04.579Z,93366.66
2023-01-21T11:43:42.964Z,93351.44
2023-01-21T11:46:33.025Z,93348.59
2023-01-21T11:49:05.793Z,93354.91
2023-01-21T11:51:36.423Z,93364.59
2023-01-21T11:54:07.290Z,93359.88
2023-01-21T11:56:35.439Z,93340.69
2023-01-21T11:59:10.954Z,93353.63
2023-01-21T12:01:37.632Z,93367.03
2023-01-21T12:04:04.742Z,93351.34
2023-01-21T12:06:31.974Z,93352.06
2023-01-21T12:09:05.360Z,93354.44
2023-01-21T12:11:32.804Z,93355.63
2023-01-21T12:14:08.179Z,93349.16
2023-01-21T12:16:38.024Z,93344.81
2023-01-21T12:19:29.967Z,93333.22
2023-01-21T12:22:03.420Z,93332.19
2023-01-21T12:24:56.046Z,93331.09
2023-01-21T12:27:40.852Z,93334.50
2023-01-21T12:30:36.863Z,93337.66
2023-01-21T12:33:16.813Z,93337.38
2023-01-21T12:35:56.483Z,93332.50
2023-01-21T12:38:32.891Z,93332.69
2023-01-21T12:41:05.345Z,93347.34
2023-01-21T12:43:46.728Z,93345.56
2023-01-21T12:46:36.917Z,93355.81
2023-01-21T12:49:20.996Z,93344.50
2023-01-21T12:52:02.819Z,93353.53
2023-01-21T12:54:37.715Z,93362.09
2023-01-21T12:57:17.173Z,93357.31
2023-01-21T12:59:56.301Z,93363.00
2023-01-21T13:02:32.385Z,93356.38
2023-01-21T13:05:06.596Z,93358.53
2023-01-21T13:08:03.676Z,93370.28
2023-01-21T13:10:42.291Z,93363.41
2023-01-21T13:13:19.712Z,93370.00
2023-01-21T13:15:56.680Z,93375.13
2023-01-21T13:18:32.769Z,93380.84
2023-01-21T13:21:22.302Z,93379.25
2023-01-21T13:24:15.492Z,93391.06
2023-01-21T13:27:24.808Z,93393.84
2023-01-21T13:29:57.324Z,93382.78
2023-01-21T13:32:26.951Z,93379.81
2023-01-21T13:35:10.950Z,93385.97
2023-01-21T13:37:40.305Z,93390.91
2023-01-21T13:40:30.189Z,93395.09
2023-01-21T13:42:59.458Z,93391.94
2023-01-21T13:45:31.860Z,93398.91
2023-01-21T13:48:22.871Z,93403.25
2023-01-21T13:50:55.319Z,93413.00
2023-01-21T13:53:49.730Z,93414.69
2023-01-21T13:56:36.910Z,93416.91
2023-01-21T13:59:12.406Z,93424.47
2023-01-21T14:01:49.346Z,93423.03
2023-01-21T14:04:55.513Z,93417.53
2023-01-21T14:07:30.469Z,93436.28
2023-01-21T14:10:12.381Z,93439.81
2023-01-21T14:12:41.522Z,93438.41
2023-01-21T14:15:39.307Z,93444.91
2023-01-21T14:18:26.951Z,93445.78
2023-01-21T14:21:15.463Z,93443.41
2023-01-21T14:24:00.684Z,93447.25
2023-01-21T14:26:29.953Z,93445.84
2023-01-21T14:28:59.456Z,93442.28
2023-01-21T14:31:41.420Z,93453.44
2023-01-21T14:34:30.257Z,93451.63
2023-01-21T14:37:09.463Z,93450.56
2023-01-21T14:39:42.040Z,93451.47
2023-01-21T14:42:17.771Z,93449.78
2023-01-21T14:45:01.264Z,93447.84
2023-01-21T14:47:30.419Z,93468.47
2023-01-21T14:49:59.296Z,93465.34
2023-01-21T14:52:36.643Z,93465.25
2023-01-21T14:55:23.936Z,93467.41
2023-01-21T14:57:53.008Z,93473.16
2023-01-21T15:00:22.185Z,93477.78
2023-01-21T15:03:43.719Z,93467.34
2023-01-21T15:06:10.400Z,93465.50
2023-01-21T15:08:46.317Z,93464.09
2023-01-21T15:11:39.905Z,93469.97
2023-01-21T15:14:14.320Z,93475.31
2023-01-21T15:16:44.912Z,93483.72
2023-01-21T15:19:11.427Z,93479.59
2023-01-21T15:21:38.113Z,93481.13
2023-01-21T15:24:21.455Z,93472.84
2023-01-21T15:27:22.540Z,93469.13
2023-01-21T15:29:55.197Z,93462.31
2023-01-21T15:32:26.439Z,93465.06
2023-01-21T15:34:58.930Z,93469.97
2023-01-21T15:37:27.589Z,93472.25
2023-01-21T15:40:00.692Z,93483.13
2023-01-21T15:43:00.043Z,93491.13
2023-01-21T15:45:40.840Z,93497.31
2023-01-21T15:48:18.401Z,93491.94
2023-01-21T15:51:06.510Z,93499.78
2023-01-21T15:54:00.409Z,93496.38
2023-01-21T15:56:38.131Z,93498.66
2023-01-21T15:59:23.336Z,93495.22
2023-01-21T16:02:14.368Z,93503.94
2023-01-21T16:04:51.631Z,93509.50
2023-01-21T16:07:24.896Z,93513.31
2023-01-21T16:10:19.078Z,93517.78
2023-01-21T16:12:45.639Z,93509.59
2023-01-21T16:15:18.034Z,93518.72
2023-01-21T16:17:59.780Z,93521.72
2023-01-21T16:20:26.517Z,93512.78
2023-01-21T16:22:57.995Z,93508.16
2023-01-21T16:25:26.847Z,93509.94
2023-01-21T16:27:55.195Z,93523.88
2023-01-21T16:30:26.893Z,93527.91
2023-01-21T16:33:10.066Z,93530.19
2023-01-21T16:35:51.954Z,93545.00
2023-01-21T16:38:25.634Z,93533.06
2023-01-21T16:41:15.407Z,93552.09
2023-01-21T16:43:59.754Z,93556.44
2023-01-21T16:46:32.765Z,93561.13
2023-01-21T16:49:01.054Z,93560.19
2023-01-21T16:51:36.298Z,93556.38
2023-01-21T16:54:24.982Z,93560.41
2023-01-21T16:56:59.115Z,93566.66
2023-01-21T16:59:28.872Z,93565.66
2023-01-21T17:01:58.586Z,93569.00
2023-01-21T17:04:25.348Z,93571.34
2023-01-21T17:06:53.977Z,93576.44
2023-01-21T17:09:29.129Z,93570.22
2023-01-21T17:11:58.379Z,93579.47
2023-01-21T17:14:29.697Z,93584.88
2023-01-21T17:17:00.192Z,93590.88
2023-01-21T17:19:38.436Z,93595.97
2023-01-21T17:22:22.724Z,93597.56
2023-01-21T17:24:55.781Z,93591.56
2023-01-21T17:27:23.418Z,93606.78
2023-01-21T17:29:50.252Z,93599.53
2023-01-21T17:32:27.122Z,93604.84
2023-01-21T17:35:16.644Z,93611.53
2023-01-21T17:37:43.870Z,93604.59
2023-01-21T17:40:46.057Z,93605.56
2023-01-21T17:43:22.265Z,93608.53
2023-01-21T17:45:51.054Z,93604.66
2023-01-21T17:48:29.836Z,93616.91
2023-01-21T17:51:07.149Z,93618.97
2023-01-21T17:53:41.205Z,93625.00
2023-01-21T17:56:08.561Z,93626.50
2023-01-21T17:58:39.272Z,93627.53
2023-01-21T18:01:06.335Z,93641.97
2023-01-21T18:03:33.030Z,93638.34
2023-01-21T18:05:59.837Z,93638.53
2023-01-21T18:08:26.569Z,93647.84
2023-01-21T18:10:53.234Z,93644.94
2023-01-21T18:13:23.493Z,93641.88
2023-01-21T18:15:52.010Z,93651.34
2023-01-21T18:18:24.507Z,93652.66
2023-01-21T18:20:51.320Z,93650.88
2023-01-21T18:23:18.574Z,93645.56
2023-01-21T18:25:52.342Z,93655.03
2023-01-21T18:28:24.553Z,93647.78
2023-01-21T18:30:54.379Z,93644.19
2023-01-21T18:33:22.979Z,93653.91
2023-01-21T18:35:51.592Z,93664.34
2023-01-21T18:38:27.509Z,93664.22
2023-01-21T18:40:57.547Z,93676.75
2023-01-21T18:43:47.016Z,93666.22
2023-01-21T18:46:14.506Z,93677.56
2023-01-21T18:48:42.976Z,93679.06
2023-01-21T18:51:10.400Z,93679.97
2023-01-21T18:53:37.135Z,93672.84
2023-01-21T18:56:06.336Z,93671.66
2023-01-21T18:58:32.998Z,93678.22
2023-01-21T19:01:00.499Z,93677.41
2023-01-21T19:03:28.066Z,93673.41
2023-01-21T19:05:55.240Z,93683.56
2023-01-21T19:08:28.987Z,93692.56
2023-01-21T19:10:56.035Z,93704.19
2023-01-21T19:13:22.888Z,93702.16
2023-01-21T19:15:50.851Z,93696.44
2023-01-21T19:18:17.737Z,93709.50
2023-01-21T19:20:44.668Z,93698.53
2023-01-21T19:23:18.050Z,93701.56
2023-01-21T19:25:55.531Z,93700.72
2023-01-21T19:28:23.447Z,93706.81
2023-01-21T19:30:55.182Z,93718.53
2023-01-21T19:33:23.460Z,93717.13
2023-01-21T19:35:56.151Z,93711.00
2023-01-21T19:38:23.884Z,93711.88
2023-01-21T19:40:50.759Z,93719.00
2023-01-21T19:43:22.177Z,93718.34
2023-01-21T19:45:51.791Z,93714.19
2023-01-21T19:48:20.916Z,93712.63
2023-01-21T19:50:48.100Z,93721.91
2023-01-21T19:53:18.234Z,93732.13
2023-01-21T19:55:47.644Z,93736.56
2023-01-21T19:58:20.092Z,93727.78
2023-01-21T20:00:49.345Z,93726.88
2023-01-21T20:03:21.841Z,93728.91
2023-01-21T20:05:51.595Z,93717.13
2023-01-21T20:08:28.118Z,93729.38
2023-01-21T20:10:55.077Z,93725.41
2023-01-21T20:13:21.901Z,93727.00
2023-01-21T20:15:51.064Z,93732.56
2023-01-21T20:18:23.235Z,93740.78
2023-01-21T20:20:50.129Z,93739.47
2023-01-21T20:23:18.035Z,93741.81
2023-01-21T20:25:48.525Z,93748.66
2023-01-21T20:28:22.929Z,93747.03
2023-01-21T20:30:51.585Z,93739.72
2023-01-21T20:33:20.459Z,93742.31
2023-01-21T20:35:54.306Z,93750.47
2023-01-21T20:38:39.061Z,93760.09
2023-01-21T20:41:05.966Z,93756.31
2023-01-21T20:43:32.777Z,93762.06
2023-01-21T20:46:07.246Z,93761.28
2023-01-21T20:48:36.990Z,93768.25
2023-01-21T20:51:04.073Z,93775.28
2023-01-21T20:53:31.065Z,93784.13
2023-01-21T20:56:00.862Z,93783.72
2023-01-21T20:58:28.165Z,93777.34
2023-01-21T21:00:56.312Z,93787.00
2023-01-21T21:03:23.401Z,93795.91
2023-01-21T21:05:50.274Z,93799.16
2023-01-21T21:08:19.267Z,93790.50
2023-01-21T21:10:46.366Z,93793.97
2023-01-21T21:13:14.480Z,93799.03
2023-01-21T21:15:42.077Z,93802.00
2023-01-21T21:18:12.985Z,93798.75
2023-01-21T21:20:40.321Z,93808.41
2023-01-21T21:23:07.739Z,93811.63
2023-01-21T21:25:40.591Z,93817.03
2023-01-21T21:28:07.251Z,93820.88
2023-01-21T21:30:34.623Z,93813.38
2023-01-21T21:33:01.857Z,93821.31
2023-01-21T21:35:35.272Z,93819.78
2023-01-21T21:38:18.273Z,93825.63
2023-01-21T21:40:46.901Z,93818.34
2023-01-21T21:43:32.351Z,93818.66
2023-01-21T21:46:23.584Z,93820.34
2023-01-21T21:48:51.493Z,93817.25
2023-01-21T21:51:18.738Z,93823.34
2023-01-21T21:53:46.723Z,93830.47
2023-01-21T21:56:14.497Z,93822.22
2023-01-21T21:58:41.403Z,93813.94
2023-01-21T22:01:08.147Z,93825.59
2023-01-21T22:03:34.967Z,93814.22
2023-01-21T22:06:03.940Z,93811.56
2023-01-21T22:08:32.716Z,93809.16
2023-01-21T22:11:00.729Z,93812.88
2023-01-21T22:13:32.166Z,93815.75
2023-01-21T22:16:00.769Z,93814.28
2023-01-21T22:18:28.994Z,93823.41
2023-01-21T22:21:26.916Z,93835.75
2023-01-21T22:23:54.719Z,93830.47
2023-01-21T22:26:23.963Z,93832.47
2023-01-21T22:28:53.635Z,93836.63
2023-01-21T22:31:38.271Z,93843.00
2023-01-21T22:34:05.375Z,93847.47
2023-01-21T22:36:32.682Z,93862.34
2023-01-21T22:38:59.704Z,93859.00
2023-01-21T22:41:27.082Z,93858.41
2023-01-21T22:43:54.395Z,93852.78
2023-01-21T22:46:26.721Z,93852.22
2023-01-21T22:48:54.360Z,93865.09
2023-01-21T22:51:22.986Z,93858.91
2023-01-21T22:53:50.222Z,93858.06
2023-01-21T22:56:19.765Z,93865.97
2023-01-21T22:58:47.129Z,93852.31
2023-01-21T23:01:20.897Z,93860.84
2023-01-21T23:03:47.519Z,93864.41
2023-01-21T23:06:14.161Z,93864.69
2023-01-21T23:08:40.752Z,93869.56
2023-01-21T23:11:08.831Z,93862.88
2023-01-21T23:13:36.117Z,93867.59
2023-01-21T23:16:06.377Z,93866.13
2023-01-21T23:18:33.988Z,93875.44
2023-01-21T23:21:05.737Z,93886.69
2023-01-21T23:23:35.805Z,93880.00
2023-01-21T23:26:03.864Z,93880.34
2023-01-21T23:28:30.547Z,93879.06
2023-01-21T23:30:57.247Z,93882.84
2023-01-21T23:33:24.429Z,93874.66
2023-01-21T23:36:00.020Z,93882.91
2023-01-21T23:38:28.321Z,93884.56
2023-01-21T23:40:56.329Z,93889.03
2023-01-21T23:43:27.373Z,93891.72
2023-01-21T23:45:54.781Z,93901.84
2023-01-21T23:48:22.279Z,93892.09
2023-01-21T23:50:48.997Z,93902.44
2023-01-21T23:53:16.032Z,93911.25
2023-01-21T23:55:42.752Z,93913.53
2023-01-21T23:58:09.437Z,93924.41
